createdAt,value
2022-11-24T00:01:36.730Z,418.76
2022-11-24T00:06:43.906Z,418.51
2022-11-24T00:11:51.222Z,420.27
2022-11-24T00:16:58.531Z,420.46
2022-11-24T00:22:05.702Z,419.30
2022-11-24T00:27:13.021Z,419.49
2022-11-24T00:32:20.169Z,421.68
2022-11-24T00:37:27.382Z,419.00
2022-11-24T00:42:34.614Z,417.61
2022-11-24T00:47:41.783Z,418.99
2022-11-24T00:52:49.004Z,419.02
2022-11-24T00:57:56.233Z,419.16
2022-11-24T01:03:03.555Z,418.40
2022-11-24T01:08:10.718Z,417.18
2022-11-24T01:13:17.940Z,416.79
2022-11-24T01:18:25.135Z,415.16
2022-11-24T01:23:32.408Z,415.62
2022-11-24T01:28:46.314Z,414.45
2022-11-24T01:33:46.883Z,413.27
2022-11-24T01:38:54.091Z,413.78
2022-11-24T01:44:01.418Z,412.22
2022-11-24T01:49:08.565Z,411.68
2022-11-24T01:54:15.769Z,411.08
2022-11-24T01:59:23.131Z,411.93
2022-11-24T02:04:30.253Z,411.27
2022-11-24T02:09:37.481Z,412.92
2022-11-24T02:14:44.781Z,411.94
2022-11-24T02:19:51.924Z,411.02
2022-11-24T02:24:59.129Z,407.35
2022-11-24T02:30:06.436Z,408.48
2022-11-24T02:35:13.660Z,406.78
2022-11-24T02:40:20.928Z,405.96
2022-11-24T02:45:28.146Z,405.47
2022-11-24T02:50:35.313Z,405.55
2022-11-24T02:55:42.513Z,404.96
2022-11-24T03:00:49.701Z,405.56
2022-11-24T03:05:56.904Z,404.50
2022-11-24T03:11:04.150Z,404.60
2022-11-24T03:16:11.551Z,404.07
2022-11-24T03:21:18.639Z,403.71
2022-11-24T03:26:25.823Z,403.84
2022-11-24T03:31:33.298Z,403.15
2022-11-24T03:36:40.359Z,403.67
2022-11-24T03:41:47.586Z,403.46
2022-11-24T03:46:54.829Z,403.18
2022-11-24T03:52:07.684Z,402.86
2022-11-24T03:57:09.325Z,403.66
2022-11-24T04:02:16.734Z,403.50
2022-11-24T04:07:23.854Z,403.00
2022-11-24T04:12:31.126Z,402.73
2022-11-24T04:17:38.322Z,404.00
2022-11-24T04:22:45.550Z,403.08
2022-11-24T04:27:52.776Z,402.93
2022-11-24T04:32:59.991Z,402.28
2022-11-24T04:38:07.128Z,401.66
2022-11-24T04:43:14.350Z,402.74
2022-11-24T04:48:21.550Z,400.93
2022-11-24T04:53:28.730Z,401.28
2022-11-24T04:58:35.959Z,400.14
2022-11-24T05:03:43.187Z,399.32
2022-11-24T05:08:50.447Z,398.58
2022-11-24T05:13:57.649Z,398.12
2022-11-24T05:19:04.941Z,397.69
2022-11-24T05:24:12.037Z,397.18
2022-11-24T05:29:19.273Z,396.47
2022-11-24T05:34:26.483Z,395.34
2022-11-24T05:39:33.821Z,395.76
2022-11-24T05:44:41.091Z,395.18
2022-11-24T05:49:48.531Z,393.87
2022-11-24T05:54:55.699Z,394.69
2022-11-24T06:00:02.855Z,393.24
2022-11-24T06:05:10.154Z,393.77
2022-11-24T06:10:17.210Z,393.92
2022-11-24T06:15:24.400Z,393.25
2022-11-24T06:20:33.026Z,394.07
2022-11-24T06:25:38.924Z,393.82
2022-11-24T06:30:46.115Z,394.34
2022-11-24T06:35:53.323Z,394.28
2022-11-24T06:41:00.533Z,394.71
2022-11-24T06:46:07.924Z,393.98
2022-11-24T06:51:14.996Z,393.56
2022-11-24T06:56:22.132Z,393.69
2022-11-24T07:01:29.323Z,393.62
2022-11-24T07:06:36.516Z,393.09
2022-11-24T07:11:44.538Z,393.60
2022-11-24T07:16:51.861Z,393.69
2022-11-24T07:21:59.034Z,394.78
2022-11-24T07:27:06.225Z,394.32
2022-11-24T07:32:13.483Z,394.77
2022-11-24T07:37:20.636Z,394.56
2022-11-24T07:42:27.816Z,394.35
2022-11-24T07:47:35.014Z,394.34
2022-11-24T07:52:42.239Z,393.08
2022-11-24T07:57:49.431Z,393.23
2022-11-24T08:02:56.635Z,391.98
2022-11-24T08:08:03.816Z,391.76
2022-11-24T08:13:11.024Z,391.47
2022-11-24T08:18:18.232Z,392.69
2022-11-24T08:23:25.571Z,391.66
2022-11-24T08:28:32.688Z,392.21
2022-11-24T08:33:39.861Z,391.55
2022-11-24T08:38:47.078Z,391.73
2022-11-24T08:43:54.270Z,392.43
2022-11-24T08:49:01.468Z,394.08
2022-11-24T08:54:08.715Z,393.07
2022-11-24T08:59:15.952Z,392.89
2022-11-24T09:04:23.165Z,391.96
2022-11-24T09:09:30.316Z,392.04
2022-11-24T09:14:37.443Z,391.85
2022-11-24T09:21:31.527Z,389.56
2022-11-24T09:26:43.040Z,387.94
2022-11-24T09:31:45.939Z,384.97
2022-11-24T09:36:53.207Z,383.47
2022-11-24T09:42:00.494Z,382.31
2022-11-24T09:47:07.822Z,382.88
2022-11-24T09:52:14.938Z,381.65
2022-11-24T09:57:22.167Z,381.39
2022-11-24T10:02:29.445Z,382.02
2022-11-24T10:07:36.749Z,381.35
2022-11-24T10:12:43.891Z,380.94
2022-11-24T10:17:51.046Z,379.96
2022-11-24T10:22:58.379Z,379.57
2022-11-24T10:28:05.614Z,379.33
2022-11-24T10:33:12.832Z,377.48
2022-11-24T10:38:20.437Z,377.47
2022-11-24T10:43:27.742Z,377.31
2022-11-24T10:48:34.835Z,377.63
2022-11-24T10:53:42.043Z,377.71
2022-11-24T10:58:49.260Z,378.16
2022-11-24T11:03:56.464Z,378.21
2022-11-24T11:09:04.821Z,377.39
2022-11-24T11:14:12.055Z,377.61
2022-11-24T11:19:47.237Z,378.53
2022-11-24T11:24:26.440Z,378.20
2022-11-24T11:34:45.450Z,378.29
2022-11-24T11:39:53.556Z,378.19
2022-11-24T11:45:00.846Z,377.76
2022-11-24T11:50:08.245Z,378.56
2022-11-24T11:55:15.501Z,379.40
2022-11-24T12:00:22.802Z,378.15
2022-11-24T12:05:30.221Z,376.84
2022-11-24T12:10:37.475Z,376.17
2022-11-24T12:15:44.813Z,376.23
2022-11-24T12:20:52.000Z,374.88
2022-11-24T12:25:59.168Z,377.96
2022-11-24T12:31:06.619Z,376.39
2022-11-24T12:36:13.608Z,375.61
2022-11-24T12:46:28.220Z,376.64
2022-11-24T12:51:35.292Z,375.58
2022-11-24T12:56:42.560Z,375.96
2022-11-24T13:01:49.908Z,376.35
2022-11-24T13:06:57.033Z,375.96
2022-11-24T13:12:04.298Z,375.52
2022-11-24T13:17:29.713Z,374.60
2022-11-24T13:22:18.738Z,375.38
2022-11-24T13:27:25.971Z,373.66
2022-11-24T13:32:33.155Z,373.75
2022-11-24T13:37:40.318Z,372.77
2022-11-24T13:42:47.572Z,372.38
2022-11-24T13:47:54.796Z,373.96
2022-11-24T13:53:01.994Z,374.52
2022-11-24T13:58:09.188Z,375.00
2022-11-24T14:03:16.460Z,373.89
2022-11-24T14:08:23.624Z,373.76
2022-11-24T14:13:30.882Z,374.26
2022-11-24T14:18:38.143Z,373.57
2022-11-24T14:23:45.340Z,373.42
2022-11-24T14:28:52.601Z,372.93
2022-11-24T14:33:59.707Z,373.09
2022-11-24T14:39:06.874Z,374.06
2022-11-24T14:44:14.118Z,373.08
2022-11-24T14:49:21.343Z,373.69
2022-11-24T14:54:28.523Z,373.49
2022-11-24T14:59:35.774Z,373.13
2022-11-24T15:09:50.207Z,373.88
2022-11-24T15:14:57.464Z,373.96
2022-11-24T15:20:04.883Z,374.09
2022-11-24T15:25:11.988Z,374.33
2022-11-24T15:30:19.258Z,374.39
2022-11-24T15:35:26.548Z,374.80
2022-11-24T15:40:33.803Z,374.86
2022-11-24T15:45:41.045Z,374.85
2022-11-24T15:50:48.327Z,375.58
2022-11-24T15:55:55.511Z,376.41
2022-11-24T16:01:02.832Z,376.60
2022-11-24T16:06:09.907Z,376.99
2022-11-24T16:11:17.107Z,377.34
2022-11-24T16:16:24.407Z,376.48
2022-11-24T16:21:31.636Z,375.50
2022-11-24T16:26:38.853Z,375.13
2022-11-24T16:31:46.122Z,375.69
2022-11-24T16:36:53.563Z,375.20
2022-11-24T16:42:00.924Z,374.87
2022-11-24T16:47:08.190Z,374.87
2022-11-24T16:52:15.431Z,374.11
2022-11-24T16:57:22.869Z,374.20
2022-11-24T17:02:30.337Z,375.04
2022-11-24T17:07:37.960Z,375.05
2022-11-24T17:12:45.607Z,374.77
2022-11-24T17:18:22.323Z,373.62
2022-11-24T17:23:00.772Z,373.14
2022-11-24T17:28:08.025Z,373.56
2022-11-24T17:33:16.574Z,372.88
2022-11-24T17:38:24.103Z,372.61
2022-11-24T17:43:31.600Z,373.71
2022-11-24T17:48:39.112Z,373.98
2022-11-24T17:53:46.756Z,374.74
2022-11-24T17:58:54.352Z,374.07
2022-11-24T18:04:01.944Z,373.94
2022-11-24T18:09:09.688Z,375.07
2022-11-24T18:14:17.384Z,374.95
2022-11-24T18:19:26.132Z,375.37
2022-11-24T18:24:33.874Z,375.35
2022-11-24T18:29:41.361Z,376.15
2022-11-24T18:34:48.676Z,376.66
2022-11-24T18:39:55.942Z,376.77
2022-11-24T18:45:03.379Z,376.88
2022-11-24T18:50:10.991Z,377.13
2022-11-24T18:55:19.345Z,377.97
2022-11-24T19:00:26.733Z,377.62
2022-11-24T19:05:34.349Z,377.68
2022-11-24T19:10:42.092Z,378.50
2022-11-24T19:15:49.781Z,378.67
2022-11-24T19:20:57.393Z,378.51
2022-11-24T19:26:05.135Z,379.28
2022-11-24T19:31:12.593Z,380.24
2022-11-24T19:36:20.036Z,380.03
2022-11-24T19:41:27.723Z,380.52
2022-11-24T19:46:35.025Z,380.67
2022-11-24T19:51:42.313Z,382.09
2022-11-24T19:56:49.914Z,381.71
2022-11-24T20:01:57.756Z,382.12
2022-11-24T20:07:05.221Z,382.38
2022-11-24T20:12:13.059Z,382.12
2022-11-24T20:17:20.437Z,381.74
2022-11-24T20:22:27.951Z,381.42
2022-11-24T20:27:35.688Z,382.01
2022-11-24T20:32:43.382Z,382.43
2022-11-24T20:38:37.785Z,382.88
2022-11-24T20:43:45.172Z,382.20
2022-11-24T20:48:52.403Z,382.83
2022-11-24T20:53:59.871Z,383.06
2022-11-24T20:59:07.212Z,383.20
2022-11-24T21:04:14.730Z,381.94
2022-11-24T21:09:22.347Z,382.12
2022-11-24T21:14:35.011Z,381.60
2022-11-24T21:19:36.861Z,382.41
2022-11-24T21:24:44.119Z,382.48
2022-11-24T21:29:51.353Z,382.63
2022-11-24T21:34:58.558Z,383.23
2022-11-24T21:40:05.781Z,383.31
2022-11-24T21:45:13.036Z,384.22
2022-11-24T21:50:20.211Z,384.04
2022-11-24T21:55:27.367Z,383.06
2022-11-24T22:00:34.619Z,383.18
2022-11-24T22:05:41.835Z,384.24
2022-11-24T22:10:49.090Z,385.06
2022-11-24T22:15:56.325Z,386.49
2022-11-24T22:21:03.440Z,386.60
2022-11-24T22:26:10.622Z,386.17
2022-11-24T22:31:17.983Z,385.81
2022-11-24T22:36:25.058Z,385.72
2022-11-24T22:41:32.238Z,385.44
2022-11-24T22:46:39.485Z,385.16
2022-11-24T22:51:46.653Z,385.93
2022-11-24T22:56:53.896Z,385.52
2022-11-24T23:02:01.131Z,385.88
2022-11-24T23:07:08.394Z,386.47
2022-11-24T23:12:15.521Z,386.11
2022-11-24T23:17:22.704Z,386.80
2022-11-24T23:22:29.889Z,385.66
2022-11-24T23:27:37.154Z,385.55
2022-11-24T23:32:44.390Z,386.06
2022-11-24T23:38:07.053Z,385.94
2022-11-24T23:42:58.856Z,387.05
2022-11-24T23:48:06.198Z,387.48
2022-11-24T23:53:13.414Z,386.82
2022-11-24T23:58:20.684Z,386.78
